createdAt,value
2022-08-31T00:00:34.540Z,51344.84
2022-08-31T00:03:20.825Z,51384.59
2022-08-31T00:05:48.225Z,51326.94
2022-08-31T00:08:15.903Z,51350.81
2022-08-31T00:10:46.374Z,51368.69
2022-08-31T00:13:14.245Z,51303.09
2022-08-31T00:15:42.674Z,51319.00
2022-08-31T00:18:10.267Z,51334.91
2022-08-31T00:20:37.721Z,51336.91
2022-08-31T00:23:12.744Z,51344.84
2022-08-31T00:25:44.743Z,51356.78
2022-08-31T00:28:13.708Z,51340.88
2022-08-31T00:30:41.841Z,51315.03
2022-08-31T00:33:09.691Z,51338.88
2022-08-31T00:35:41.555Z,51305.09
2022-08-31T00:38:10.384Z,51326.94
2022-08-31T00:40:45.011Z,51326.94
2022-08-31T00:43:48.944Z,51311.06
2022-08-31T00:46:23.485Z,51334.91
2022-08-31T00:49:12.676Z,51342.84
2022-08-31T00:51:56.950Z,51352.78
2022-08-31T00:54:46.298Z,51328.94
2022-08-31T00:57:15.249Z,51326.94
2022-08-31T00:59:44.924Z,51330.94
2022-08-31T01:02:12.091Z,51354.78
2022-08-31T01:04:39.514Z,51321.00
2022-08-31T01:07:08.157Z,51313.03
2022-08-31T01:09:45.090Z,51340.88
2022-08-31T01:12:23.378Z,51313.03
2022-08-31T01:14:50.586Z,51321.00
2022-08-31T01:17:18.233Z,51322.97
2022-08-31T01:19:54.658Z,51328.94
2022-08-31T01:23:07.943Z,51340.88
2022-08-31T01:25:38.607Z,51336.91
2022-08-31T01:28:09.923Z,51348.81
2022-08-31T01:30:39.667Z,51311.06
2022-08-31T01:33:07.556Z,51332.91
2022-08-31T01:35:35.702Z,51324.97
2022-08-31T01:38:04.601Z,51330.94
2022-08-31T01:40:45.896Z,51344.84
2022-08-31T01:43:13.132Z,51328.94
2022-08-31T01:45:41.909Z,51295.16
2022-08-31T01:48:09.118Z,51321.00
2022-08-31T01:50:36.506Z,51342.84
2022-08-31T01:53:04.082Z,51311.06
2022-08-31T01:55:32.023Z,51336.91
2022-08-31T01:58:00.515Z,51305.09
2022-08-31T02:01:00.638Z,51332.91
2022-08-31T02:03:27.835Z,51313.03
2022-08-31T02:08:22.067Z,51321.00
2022-08-31T02:10:50.885Z,51317.00
2022-08-31T02:13:18.510Z,51317.00
2022-08-31T02:15:45.799Z,51324.97
2022-08-31T02:18:15.434Z,51358.75
2022-08-31T02:20:46.294Z,51328.94
2022-08-31T02:23:13.480Z,51326.94
2022-08-31T02:25:40.604Z,51334.91
2022-08-31T02:28:07.834Z,51324.97
2022-08-31T02:30:35.070Z,51321.00
2022-08-31T02:33:02.603Z,51299.13
2022-08-31T02:35:29.911Z,51301.09
2022-08-31T02:37:57.321Z,51299.13
2022-08-31T02:40:25.263Z,51324.97
2022-08-31T02:42:54.196Z,51330.94
2022-08-31T02:45:26.724Z,51336.91
2022-08-31T02:48:00.372Z,51340.88
2022-08-31T02:50:42.714Z,51352.78
2022-08-31T02:53:11.672Z,51324.97
2022-08-31T02:55:40.168Z,51317.00
2022-08-31T02:58:07.613Z,51340.88
2022-08-31T03:00:34.973Z,51326.94
2022-08-31T03:03:03.178Z,51354.78
2022-08-31T03:05:30.838Z,51313.03
2022-08-31T03:07:58.485Z,51332.91
2022-08-31T03:10:26.721Z,51321.00
2022-08-31T03:12:54.393Z,51342.84
2022-08-31T03:15:25.202Z,51336.91
2022-08-31T03:17:53.560Z,51348.81
2022-08-31T03:20:26.638Z,51317.00
2022-08-31T03:22:54.403Z,51356.78
2022-08-31T03:25:21.998Z,51330.94
2022-08-31T03:27:50.765Z,51317.00
2022-08-31T03:30:20.773Z,51332.91
2022-08-31T03:33:02.752Z,51305.09
2022-08-31T03:35:31.573Z,51305.09
2022-08-31T03:37:58.984Z,51313.03
2022-08-31T03:40:26.156Z,51301.09
2022-08-31T03:42:53.306Z,51330.94
2022-08-31T03:45:20.723Z,51338.88
2022-08-31T03:47:47.899Z,51338.88
2022-08-31T03:50:16.311Z,51307.06
2022-08-31T03:53:12.679Z,51326.94
2022-08-31T03:55:42.311Z,51362.75
2022-08-31T03:58:12.016Z,51324.97
2022-08-31T04:00:43.136Z,51321.00
2022-08-31T04:03:24.297Z,51309.06
2022-08-31T04:06:12.430Z,51317.00
2022-08-31T04:08:58.186Z,51356.78
2022-08-31T04:12:00.937Z,51305.09
2022-08-31T04:14:46.767Z,51321.00
2022-08-31T04:17:32.998Z,51324.97
2022-08-31T04:20:29.390Z,51315.03
2022-08-31T04:22:58.033Z,51301.09
2022-08-31T04:25:32.933Z,51307.06
2022-08-31T04:28:01.401Z,51317.00
2022-08-31T04:30:31.466Z,51313.03
2022-08-31T04:33:01.935Z,51317.00
2022-08-31T04:35:29.142Z,51324.97
2022-08-31T04:37:56.588Z,51324.97
2022-08-31T04:40:26.234Z,51344.84
2022-08-31T04:42:54.446Z,51322.97
2022-08-31T04:45:24.688Z,51334.91
2022-08-31T04:47:52.837Z,51338.88
2022-08-31T04:50:20.253Z,51330.94
2022-08-31T04:53:07.885Z,51315.03
2022-08-31T04:55:41.113Z,51332.91
2022-08-31T04:58:10.910Z,51311.06
2022-08-31T05:00:38.367Z,51348.81
2022-08-31T05:03:11.701Z,51344.84
2022-08-31T05:05:41.035Z,51326.94
2022-08-31T05:08:08.874Z,51326.94
2022-08-31T05:10:36.275Z,51328.94
2022-08-31T05:13:04.017Z,51324.97
2022-08-31T05:15:33.839Z,51348.81
2022-08-31T05:18:01.335Z,51368.69
2022-08-31T05:20:32.184Z,51334.91
2022-08-31T05:22:59.390Z,51368.69
2022-08-31T05:25:27.453Z,51364.72
2022-08-31T05:27:55.035Z,51344.84
2022-08-31T05:30:22.857Z,51358.75
2022-08-31T05:33:05.868Z,51352.78
2022-08-31T05:35:35.169Z,51360.75
2022-08-31T05:38:02.553Z,51354.78
2022-08-31T05:40:30.923Z,51342.84
2022-08-31T05:42:59.632Z,51348.81
2022-08-31T05:45:27.693Z,51358.75
2022-08-31T05:47:55.448Z,51376.66
2022-08-31T05:50:22.695Z,51366.72
2022-08-31T05:52:50.121Z,51384.59
2022-08-31T05:55:17.597Z,51372.69
2022-08-31T05:57:45.188Z,51376.66
2022-08-31T06:00:13.029Z,51382.63
2022-08-31T06:02:40.205Z,51410.44
2022-08-31T06:05:10.060Z,51376.66
2022-08-31T06:07:37.890Z,51392.56
2022-08-31T06:10:10.489Z,51388.59
2022-08-31T06:12:39.659Z,51372.69
2022-08-31T06:15:07.629Z,51378.66
2022-08-31T06:17:36.376Z,51400.50
2022-08-31T06:20:06.244Z,51382.63
2022-08-31T06:22:37.181Z,51402.50
2022-08-31T06:25:10.339Z,51388.59
2022-08-31T06:27:38.794Z,51392.56
2022-08-31T06:30:07.944Z,51398.53
2022-08-31T06:32:35.783Z,51426.34
2022-08-31T06:35:05.198Z,51416.41
2022-08-31T06:37:53.385Z,51398.53
2022-08-31T06:40:46.673Z,51440.28
2022-08-31T06:43:44.706Z,51384.59
2022-08-31T06:46:23.609Z,51414.44
2022-08-31T06:49:09.992Z,51414.44
2022-08-31T06:51:38.379Z,51414.44
2022-08-31T06:54:28.107Z,51394.53
2022-08-31T06:57:14.969Z,51408.47
2022-08-31T07:00:00.786Z,51418.41
2022-08-31T07:02:34.265Z,51398.53
2022-08-31T07:05:01.794Z,51418.41
2022-08-31T07:07:31.350Z,51446.25
2022-08-31T07:09:59.007Z,51442.25
2022-08-31T07:12:26.439Z,51414.44
2022-08-31T07:14:55.219Z,51436.28
2022-08-31T07:17:24.170Z,51476.06
2022-08-31T07:19:51.494Z,51460.16
2022-08-31T07:22:19.823Z,51448.22
2022-08-31T07:24:56.262Z,51446.25
2022-08-31T07:27:23.619Z,51444.25
2022-08-31T07:29:55.235Z,51458.16
2022-08-31T07:32:23.820Z,51444.25
2022-08-31T07:34:58.573Z,51464.13
2022-08-31T07:37:57.835Z,51428.34
2022-08-31T07:40:48.684Z,51440.28
2022-08-31T07:43:16.654Z,51448.22
2022-08-31T07:45:45.365Z,51436.28
2022-08-31T07:48:20.001Z,51448.22
2022-08-31T07:51:23.385Z,51432.31
2022-08-31T07:54:10.283Z,51476.06
2022-08-31T07:56:46.623Z,51454.19
2022-08-31T07:59:15.408Z,51484.00
2022-08-31T08:01:45.212Z,51448.22
2022-08-31T08:04:19.229Z,51474.06
2022-08-31T08:07:08.537Z,51484.00
2022-08-31T08:09:55.670Z,51513.84
2022-08-31T08:12:43.969Z,51460.16
2022-08-31T08:15:19.974Z,51488.00
2022-08-31T08:18:25.486Z,51476.06
2022-08-31T08:20:57.854Z,51466.13
2022-08-31T08:23:28.180Z,51486.00
2022-08-31T08:26:21.642Z,51507.88
2022-08-31T08:29:05.924Z,51505.88
2022-08-31T08:31:36.919Z,51515.81
2022-08-31T08:34:04.164Z,51521.78
2022-08-31T08:36:36.497Z,51537.69
2022-08-31T08:39:09.401Z,51517.81
2022-08-31T08:41:41.614Z,51521.78
2022-08-31T08:44:18.073Z,51553.59
2022-08-31T08:46:56.418Z,51533.72
2022-08-31T08:49:50.894Z,51555.59
2022-08-31T08:52:40.979Z,51569.50
2022-08-31T08:55:27.340Z,51587.41
2022-08-31T08:57:56.182Z,51611.25
2022-08-31T09:00:29.805Z,51583.41
2022-08-31T09:03:18.197Z,51593.38
2022-08-31T09:06:11.395Z,51611.25
2022-08-31T09:09:25.927Z,51579.44
2022-08-31T09:12:46.289Z,51553.59
2022-08-31T09:15:39.581Z,51587.41
2022-08-31T09:18:53.317Z,51615.22
2022-08-31T09:21:29.570Z,51549.63
2022-08-31T09:24:02.893Z,51591.38
2022-08-31T09:27:18.114Z,51591.38
2022-08-31T09:29:59.519Z,51575.47
2022-08-31T09:32:35.695Z,51585.41
2022-08-31T09:35:09.267Z,51575.47
2022-08-31T09:37:46.236Z,51603.31
2022-08-31T09:40:40.693Z,51609.28
2022-08-31T09:43:15.436Z,51597.34
2022-08-31T09:46:23.868Z,51595.34
2022-08-31T09:48:58.382Z,51621.19
2022-08-31T09:51:34.441Z,51609.28
2022-08-31T09:54:46.636Z,51643.06
2022-08-31T09:57:15.138Z,51639.09
2022-08-31T09:59:48.070Z,51635.13
2022-08-31T10:02:22.762Z,51670.91
2022-08-31T10:04:57.271Z,51637.09
2022-08-31T10:07:38.060Z,51593.38
2022-08-31T10:10:20.467Z,51619.22
2022-08-31T10:13:22.441Z,51643.06
2022-08-31T10:16:14.600Z,51635.13
2022-08-31T10:18:52.300Z,51637.09
2022-08-31T10:21:39.671Z,51627.16
2022-08-31T10:24:46.468Z,51633.13
2022-08-31T10:27:31.376Z,51631.13
2022-08-31T10:30:08.555Z,51682.84
2022-08-31T10:32:38.699Z,51668.91
2022-08-31T10:35:42.591Z,51686.81
2022-08-31T10:38:43.722Z,51678.84
2022-08-31T10:41:19.644Z,51655.00
2022-08-31T10:44:23.739Z,51656.97
2022-08-31T10:46:54.456Z,51643.06
2022-08-31T10:49:22.288Z,51651.03
2022-08-31T10:52:29.327Z,51686.81
2022-08-31T10:55:18.196Z,51655.00
2022-08-31T10:58:33.589Z,51655.00
2022-08-31T11:01:19.011Z,51688.78
2022-08-31T11:04:44.168Z,51698.75
2022-08-31T11:07:33.550Z,51762.38
2022-08-31T11:10:27.641Z,51786.22
2022-08-31T11:13:05.137Z,51746.47
2022-08-31T11:15:48.887Z,51772.31
2022-08-31T11:18:50.724Z,51732.53
2022-08-31T11:22:05.638Z,51714.66
2022-08-31T11:24:41.626Z,51712.66
2022-08-31T11:27:23.746Z,51712.66
2022-08-31T11:30:27.888Z,51716.63
2022-08-31T11:33:00.321Z,51738.50
2022-08-31T11:35:49.488Z,51734.53
2022-08-31T11:38:50.056Z,51738.50
2022-08-31T11:41:50.974Z,51770.31
2022-08-31T11:44:30.476Z,51736.53
2022-08-31T11:47:28.996Z,51764.34
2022-08-31T11:50:18.344Z,51734.53
2022-08-31T11:52:48.534Z,51750.44
2022-08-31T11:55:28.502Z,51782.25
2022-08-31T11:58:07.650Z,51800.16
2022-08-31T12:00:50.959Z,51802.13
2022-08-31T12:03:45.917Z,51808.09
2022-08-31T12:06:25.635Z,51800.16
2022-08-31T12:09:29.632Z,51847.88
2022-08-31T12:12:12.194Z,51827.97
2022-08-31T12:14:56.720Z,51837.91
2022-08-31T12:17:47.090Z,51853.81
2022-08-31T12:21:11.760Z,51841.91
2022-08-31T12:24:18.960Z,51802.13
2022-08-31T12:27:03.874Z,51792.19
2022-08-31T12:29:35.336Z,51780.25
2022-08-31T12:32:28.011Z,51770.31
2022-08-31T12:35:25.904Z,51778.28
2022-08-31T12:38:17.635Z,51722.59
2022-08-31T12:40:55.787Z,51744.47
2022-08-31T12:43:31.731Z,51814.06
2022-08-31T12:46:09.444Z,51829.97
2022-08-31T12:49:04.241Z,51857.81
2022-08-31T12:51:48.202Z,51859.78
2022-08-31T12:55:04.472Z,51865.75
2022-08-31T12:58:02.784Z,51869.72
2022-08-31T13:00:34.109Z,51861.78
2022-08-31T13:03:17.502Z,51905.53
2022-08-31T13:06:09.120Z,51913.47
2022-08-31T13:08:44.899Z,51945.28
2022-08-31T13:11:42.613Z,51959.22
2022-08-31T13:14:12.620Z,51887.63
2022-08-31T13:17:05.726Z,51796.16
2022-08-31T13:19:35.276Z,51824.00
2022-08-31T13:22:17.057Z,51822.00
2022-08-31T13:24:53.624Z,51820.03
2022-08-31T13:27:30.311Z,51792.19
2022-08-31T13:30:19.134Z,51790.19
2022-08-31T13:32:54.888Z,51770.31
2022-08-31T13:35:27.568Z,51760.38
2022-08-31T13:38:06.373Z,51744.47
2022-08-31T13:40:39.375Z,51738.50
2022-08-31T13:43:09.609Z,51730.56
2022-08-31T13:45:58.681Z,51686.81
2022-08-31T13:48:30.049Z,51682.84
2022-08-31T13:51:09.768Z,51649.03
2022-08-31T13:54:03.824Z,51682.84
2022-08-31T13:56:49.161Z,51680.84
2022-08-31T13:59:23.668Z,51702.72
2022-08-31T14:02:16.349Z,51722.59
2022-08-31T14:04:50.409Z,51660.97
2022-08-31T14:07:32.673Z,51724.59
2022-08-31T14:10:22.300Z,51736.53
2022-08-31T14:13:02.549Z,51800.16
2022-08-31T14:15:58.771Z,51881.66
2022-08-31T14:18:40.334Z,51849.84
2022-08-31T14:21:20.513Z,51816.06
2022-08-31T14:24:03.019Z,51857.81
2022-08-31T14:26:42.782Z,51804.13
2022-08-31T14:29:16.533Z,51808.09
2022-08-31T14:31:56.294Z,51835.94
2022-08-31T14:34:41.049Z,51816.06
2022-08-31T14:37:19.796Z,51827.97
2022-08-31T14:40:05.640Z,51853.81
2022-08-31T14:42:37.802Z,51794.19
2022-08-31T14:45:18.610Z,51800.16
2022-08-31T14:47:50.818Z,51726.56
2022-08-31T14:50:25.509Z,51762.38
2022-08-31T14:52:53.759Z,51762.38
2022-08-31T14:55:24.420Z,51766.34
2022-08-31T14:58:02.994Z,51748.44
2022-08-31T15:00:51.061Z,51736.53
2022-08-31T15:03:24.505Z,51710.66
2022-08-31T15:05:51.676Z,51700.72
2022-08-31T15:08:20.388Z,51686.81
2022-08-31T15:11:06.471Z,51678.84
2022-08-31T15:13:38.181Z,51649.03
2022-08-31T15:16:08.185Z,51641.09
2022-08-31T15:18:36.662Z,51597.34
2022-08-31T15:21:06.074Z,51621.19
2022-08-31T15:23:34.638Z,51603.31
2022-08-31T15:26:06.677Z,51583.41
2022-08-31T15:28:37.739Z,51595.34
2022-08-31T15:31:11.489Z,51609.28
2022-08-31T15:33:43.848Z,51597.34
2022-08-31T15:36:15.440Z,51579.44
2022-08-31T15:38:45.722Z,51571.50
2022-08-31T15:41:13.343Z,51561.56
2022-08-31T15:43:45.683Z,51567.50
2022-08-31T15:46:16.261Z,51581.44
2022-08-31T15:48:45.214Z,51587.41
2022-08-31T15:51:27.823Z,51599.31
2022-08-31T15:54:21.343Z,51583.41
2022-08-31T15:56:48.266Z,51577.47
2022-08-31T15:59:15.932Z,51573.47
2022-08-31T16:01:43.061Z,51581.44
2022-08-31T16:04:16.147Z,51585.41
2022-08-31T16:06:43.290Z,51559.56
2022-08-31T16:09:10.620Z,51591.38
2022-08-31T16:11:37.862Z,51579.44
2022-08-31T16:14:09.701Z,51593.38
2022-08-31T16:16:46.555Z,51593.38
2022-08-31T16:19:34.170Z,51589.38
2022-08-31T16:22:05.999Z,51605.28
2022-08-31T16:24:37.359Z,51567.50
2022-08-31T16:27:13.102Z,51555.59
2022-08-31T16:29:45.664Z,51573.47
2022-08-31T16:32:13.832Z,51571.50
2022-08-31T16:34:42.609Z,51541.66
2022-08-31T16:37:10.467Z,51577.47
2022-08-31T16:39:44.595Z,51585.41
2022-08-31T16:42:14.384Z,51571.50
2022-08-31T16:44:46.945Z,51587.41
2022-08-31T16:47:18.712Z,51543.66
2022-08-31T16:49:46.866Z,51559.56
2022-08-31T16:52:21.549Z,51573.47
2022-08-31T16:54:52.283Z,51569.50
2022-08-31T16:57:27.362Z,51517.81
2022-08-31T16:59:57.216Z,51531.72
2022-08-31T17:02:25.475Z,51541.66
2022-08-31T17:04:54.196Z,51557.56
2022-08-31T17:07:24.302Z,51529.75
2022-08-31T17:10:07.062Z,51549.63
2022-08-31T17:12:34.745Z,51545.66
2022-08-31T17:15:04.174Z,51539.69
2022-08-31T17:17:32.889Z,51527.75
2022-08-31T17:20:00.760Z,51545.66
2022-08-31T17:22:33.061Z,51541.66
2022-08-31T17:25:04.018Z,51531.72
2022-08-31T17:27:33.327Z,51523.78
2022-08-31T17:30:03.614Z,51515.81
2022-08-31T17:32:30.740Z,51486.00
2022-08-31T17:34:58.005Z,51535.69
2022-08-31T17:37:32.727Z,51517.81
2022-08-31T17:40:00.427Z,51491.97
2022-08-31T17:42:28.747Z,51517.81
2022-08-31T17:44:57.171Z,51501.91
2022-08-31T17:47:26.013Z,51489.97
2022-08-31T17:49:54.121Z,51491.97
2022-08-31T17:52:21.957Z,51497.94
2022-08-31T17:54:51.297Z,51511.84
2022-08-31T17:57:25.091Z,51493.94
2022-08-31T17:59:54.944Z,51488.00
2022-08-31T18:02:27.691Z,51489.97
2022-08-31T18:04:55.284Z,51474.06
2022-08-31T18:07:22.500Z,51493.94
2022-08-31T18:09:49.774Z,51476.06
2022-08-31T18:12:21.944Z,51466.13
2022-08-31T18:14:50.072Z,51476.06
2022-08-31T18:17:18.284Z,51478.03
2022-08-31T18:19:45.577Z,51480.03
2022-08-31T18:22:18.290Z,51470.09
2022-08-31T18:24:45.787Z,51484.00
2022-08-31T18:27:15.331Z,51446.25
2022-08-31T18:29:44.566Z,51466.13
2022-08-31T18:32:12.353Z,51497.94
2022-08-31T18:34:47.472Z,51491.97
2022-08-31T18:37:21.944Z,51482.03
2022-08-31T18:40:08.704Z,51468.09
2022-08-31T18:42:56.897Z,51466.13
2022-08-31T18:45:26.206Z,51466.13
2022-08-31T18:50:46.794Z,51456.19
2022-08-31T18:53:27.636Z,51466.13
2022-08-31T18:56:05.178Z,51482.03
2022-08-31T18:58:32.415Z,51472.09
2022-08-31T19:00:59.702Z,51468.09
2022-08-31T19:03:28.076Z,51444.25
2022-08-31T19:05:56.684Z,51446.25
2022-08-31T19:08:25.329Z,51452.19
2022-08-31T19:10:54.220Z,51472.09
2022-08-31T19:13:21.544Z,51446.25
2022-08-31T19:15:48.996Z,51458.16
2022-08-31T19:18:16.270Z,51456.19
2022-08-31T19:20:43.400Z,51444.25
2022-08-31T19:23:10.504Z,51456.19
2022-08-31T19:25:43.032Z,51446.25
2022-08-31T19:28:10.958Z,51440.28
2022-08-31T19:30:38.428Z,51442.25
2022-08-31T19:33:12.295Z,51452.19
2022-08-31T19:35:40.001Z,51416.41
2022-08-31T19:38:07.043Z,51430.34
2022-08-31T19:40:39.963Z,51442.25
2022-08-31T19:45:54.457Z,51432.31
2022-08-31T19:48:24.336Z,51422.38
2022-08-31T19:50:52.461Z,51452.19
2022-08-31T19:53:21.520Z,51432.31
2022-08-31T19:55:51.619Z,51432.31
2022-08-31T19:58:26.463Z,51436.28
2022-08-31T20:01:00.753Z,51452.19
2022-08-31T20:03:31.212Z,51410.44
2022-08-31T20:05:59.811Z,51426.34
2022-08-31T20:08:26.942Z,51424.38
2022-08-31T20:10:54.495Z,51416.41
2022-08-31T20:13:28.292Z,51444.25
2022-08-31T20:15:56.291Z,51410.44
2022-08-31T20:18:26.231Z,51418.41
2022-08-31T20:20:55.061Z,51440.28
2022-08-31T20:23:22.753Z,51414.44
2022-08-31T20:25:51.502Z,51454.19
2022-08-31T20:28:26.312Z,51392.56
2022-08-31T20:31:00.019Z,51392.56
2022-08-31T20:33:27.994Z,51400.50
2022-08-31T20:35:55.324Z,51396.53
2022-08-31T20:38:22.534Z,51400.50
2022-08-31T20:40:54.989Z,51408.47
2022-08-31T20:43:23.709Z,51370.69
2022-08-31T20:45:51.101Z,51380.63
2022-08-31T20:48:37.070Z,51380.63
2022-08-31T20:51:18.284Z,51388.59
2022-08-31T20:53:46.641Z,51378.66
2022-08-31T20:56:17.693Z,51402.50
2022-08-31T20:58:46.555Z,51358.75
2022-08-31T21:01:16.269Z,51394.53
2022-08-31T21:03:43.773Z,51402.50
2022-08-31T21:06:12.200Z,51390.56
2022-08-31T21:08:42.391Z,51374.66
2022-08-31T21:11:16.688Z,51366.72
2022-08-31T21:13:46.449Z,51382.63
2022-08-31T21:16:15.046Z,51390.56
2022-08-31T21:18:42.191Z,51372.69
2022-08-31T21:21:17.376Z,51360.75
2022-08-31T21:23:46.333Z,51376.66
2022-08-31T21:26:21.476Z,51378.66
2022-08-31T21:28:49.531Z,51384.59
2022-08-31T21:31:28.514Z,51414.44
2022-08-31T21:34:02.352Z,51350.81
2022-08-31T21:36:33.677Z,51364.72
2022-08-31T21:39:01.022Z,51364.72
2022-08-31T21:41:29.271Z,51378.66
2022-08-31T21:43:57.518Z,51366.72
2022-08-31T21:46:28.358Z,51358.75
2022-08-31T21:48:58.424Z,51376.66
2022-08-31T21:51:33.394Z,51350.81
2022-08-31T21:54:05.079Z,51340.88
2022-08-31T21:56:37.978Z,51354.78
2022-08-31T21:59:07.302Z,51390.56
2022-08-31T22:01:35.456Z,51414.44
2022-08-31T22:04:06.979Z,51384.59
2022-08-31T22:06:34.995Z,51366.72
2022-08-31T22:09:13.361Z,51364.72
2022-08-31T22:11:45.998Z,51374.66
2022-08-31T22:14:18.499Z,51360.75
2022-08-31T22:16:48.135Z,51376.66
2022-08-31T22:19:21.781Z,51384.59
2022-08-31T22:21:53.948Z,51366.72
2022-08-31T22:24:27.496Z,51354.78
2022-08-31T22:26:59.296Z,51372.69
2022-08-31T22:29:31.634Z,51344.84
2022-08-31T22:32:08.510Z,51356.78
2022-08-31T22:34:37.730Z,51360.75
2022-08-31T22:37:06.187Z,51344.84
2022-08-31T22:39:33.506Z,51366.72
2022-08-31T22:42:01.597Z,51332.91
2022-08-31T22:44:34.200Z,51374.66
2022-08-31T22:47:02.215Z,51346.84
2022-08-31T22:49:29.631Z,51338.88
2022-08-31T22:51:57.758Z,51380.63
2022-08-31T22:54:26.391Z,51354.78
2022-08-31T22:56:53.986Z,51348.81
2022-08-31T22:59:27.341Z,51364.72
2022-08-31T23:02:03.355Z,51364.72
2022-08-31T23:04:33.632Z,51350.81
2022-08-31T23:07:01.577Z,51358.75
2022-08-31T23:09:30.986Z,51344.84
2022-08-31T23:12:01.483Z,51366.72
2022-08-31T23:14:29.733Z,51344.84
2022-08-31T23:17:00.667Z,51358.75
2022-08-31T23:19:37.925Z,51364.72
2022-08-31T23:22:11.364Z,51332.91
2022-08-31T23:24:46.337Z,51364.72
2022-08-31T23:27:21.633Z,51334.91
2022-08-31T23:29:53.869Z,51346.84
2022-08-31T23:32:26.250Z,51348.81
2022-08-31T23:34:56.386Z,51364.72
2022-08-31T23:37:25.747Z,51362.75
2022-08-31T23:39:54.905Z,51362.75
2022-08-31T23:42:24.539Z,51358.75
2022-08-31T23:44:52.738Z,51382.63
2022-08-31T23:47:25.904Z,51346.84
2022-08-31T23:49:53.381Z,51342.84
2022-08-31T23:52:23.929Z,51350.81
2022-08-31T23:54:55.340Z,51340.88
2022-08-31T23:57:32.358Z,51354.78
